Time;durP1;ratioP1;P1;durP2;ratioP2;P2;SDS_P1;SDS_P2;PMS_P1;PMS_P2;Temp;Humidity;BMP_temperature;BMP_pressure;BME280_temperature;BME280_humidity;BME280_pressure;Samples;Min_cycle;Max_cycle;Signal;HPM_P1;HPM_P2
2021/12/09 00:02:20;;;;;;;217.65;115.22;;;;;;;11.46;100.00;99196.50;5069743;28;20468;-68
2021/12/09 00:05:02;;;;;;;223.15;116.07;;;;;;;11.67;100.00;99198.53;5064833;28;20142;-67
2021/12/09 00:07:53;;;;;;;215.73;116.25;;;;;;;11.66;100.00;99206.28;5046240;28;20049;-68
2021/12/09 00:10:41;;;;;;;229.20;115.18;;;;;;;11.64;100.00;99203.78;5057889;28;20040;-67
2021/12/09 00:13:30;;;;;;;207.90;114.72;;;;;;;11.47;100.00;99211.09;5066116;28;20045;-67
2021/12/09 00:16:19;;;;;;;214.88;113.22;;;;;;;11.59;100.00;99215.09;5065952;28;20059;-68
2021/12/09 00:19:02;;;;;;;203.77;111.57;;;;;;;11.92;100.00;99224.56;5048713;28;20609;-67
2021/12/09 00:21:50;;;;;;;217.43;111.30;;;;;;;12.05;100.00;99231.09;5065218;28;20145;-67
2021/12/09 00:24:33;;;;;;;193.35;109.82;;;;;;;11.85;100.00;99234.22;5047418;28;20135;-68
2021/12/09 00:27:22;;;;;;;204.80;107.47;;;;;;;12.00;100.00;99242.44;5071229;28;20080;-68
2021/12/09 00:30:12;;;;;;;202.02;107.28;;;;;;;11.96;100.00;99244.28;5072579;28;20036;-68
2021/12/09 00:32:55;;;;;;;206.70;107.57;;;;;;;11.93;100.00;99249.50;5069676;28;20040;-68
2021/12/09 00:35:56;;;;;;;197.52;110.60;;;;;;;11.92;100.00;99255.53;5082616;28;20122;-68
2021/12/09 00:38:39;;;;;;;212.27;112.63;;;;;;;11.83;100.00;99260.94;5086008;28;20066;-68
2021/12/09 00:41:34;;;;;;;202.00;113.18;;;;;;;11.77;100.00;99267.13;5085585;28;20043;-68
2021/12/09 00:44:10;;;;;;;215.50;117.32;;;;;;;11.75;100.00;99273.19;5077090;28;20063;-68
2021/12/09 00:46:59;;;;;;;225.95;115.88;;;;;;;11.72;100.00;99281.84;5066058;28;20419;-68
2021/12/09 00:49:55;;;;;;;223.30;115.97;;;;;;;11.73;100.00;99280.94;5062425;28;20057;-68
2021/12/09 00:52:38;;;;;;;203.70;116.43;;;;;;;11.81;100.00;99283.41;5070118;28;20511;-67
2021/12/09 00:55:25;;;;;;;220.20;119.88;;;;;;;11.82;100.00;99283.31;5067227;28;20128;-68
2021/12/09 00:58:15;;;;;;;235.20;126.65;;;;;;;11.65;100.00;99282.91;5066609;28;20040;-67
2021/12/09 01:00:58;;;;;;;236.40;126.47;;;;;;;11.55;100.00;99284.00;5073965;28;20044;-68
2021/12/09 01:03:48;;;;;;;234.77;123.68;;;;;;;11.48;100.00;99274.72;5066940;28;20041;-68
2021/12/09 01:06:30;;;;;;;220.82;123.90;;;;;;;11.42;100.00;99275.69;5085282;28;20135;-68
2021/12/09 01:09:19;;;;;;;206.30;118.85;;;;;;;11.36;100.00;99275.84;5065442;28;20639;-68
2021/12/09 01:12:01;;;;;;;217.27;122.20;;;;;;;11.35;100.00;99281.03;5067652;28;20137;-66
2021/12/09 01:14:49;;;;;;;224.27;122.57;;;;;;;11.38;100.00;99288.72;5072059;28;20142;-67
2021/12/09 01:17:32;;;;;;;232.52;126.30;;;;;;;11.34;100.00;99289.66;5071280;28;20052;-68
2021/12/09 01:20:27;;;;;;;227.02;123.88;;;;;;;11.30;100.00;99290.63;5069917;28;20044;-67
2021/12/09 01:23:09;;;;;;;220.65;124.07;;;;;;;11.20;100.00;99295.13;5070336;28;20140;-68
2021/12/09 01:26:03;;;;;;;227.13;122.35;;;;;;;11.19;100.00;99290.00;5072625;28;20454;-68
2021/12/09 01:28:52;;;;;;;244.77;126.63;;;;;;;11.37;100.00;99294.75;5057904;28;20139;-69
2021/12/09 01:31:58;;;;;;;251.02;127.55;;;;;;;11.42;100.00;99296.31;5054484;28;20049;-68
2021/12/09 01:34:37;;;;;;;232.25;128.07;;;;;;;11.46;100.00;99308.28;5038411;28;20067;-68
2021/12/09 01:37:26;;;;;;;230.52;125.05;;;;;;;11.41;100.00;99309.28;5066621;28;20044;-68
2021/12/09 01:40:09;;;;;;;231.85;127.03;;;;;;;11.35;100.00;99314.56;5067342;28;20044;-69
2021/12/09 01:42:58;;;;;;;229.73;128.35;;;;;;;11.33;100.00;99316.34;5069454;28;20049;-67
2021/12/09 01:45:34;;;;;;;221.05;126.28;;;;;;;11.33;100.00;99311.19;5064552;28;20048;-68
2021/12/09 01:48:22;;;;;;;248.52;128.65;;;;;;;11.31;100.00;99310.38;5043034;28;20063;-68
2021/12/09 01:51:06;;;;;;;252.70;129.48;;;;;;;11.37;100.00;99318.81;5053134;28;20045;-67
2021/12/09 01:53:54;;;;;;;258.27;130.23;;;;;;;11.32;100.00;99320.66;5067776;28;20090;-67
2021/12/09 01:56:36;;;;;;;248.43;133.05;;;;;;;11.33;100.00;99322.38;5067986;28;20576;-67
2021/12/09 01:59:31;;;;;;;258.30;133.30;;;;;;;11.39;100.00;99331.69;5048610;28;20049;-67
2021/12/09 02:02:19;;;;;;;250.80;131.93;;;;;;;11.46;100.00;99326.34;5050167;28;20048;-66
2021/12/09 02:05:28;;;;;;;273.10;135.02;;;;;;;11.48;100.00;99332.31;5052616;28;20137;-67
2021/12/09 02:08:13;;;;;;;246.30;131.25;;;;;;;11.52;100.00;99339.09;5077427;28;20470;-67
2021/12/09 02:11:03;;;;;;;252.77;135.32;;;;;;;11.57;100.00;99338.16;5075593;28;20135;-66
2021/12/09 02:13:55;;;;;;;250.45;136.40;;;;;;;11.55;100.00;99345.06;5078760;28;20531;-67
2021/12/09 02:16:40;;;;;;;264.70;139.48;;;;;;;11.63;100.00;99346.59;5078308;28;20483;-67
2021/12/09 02:19:29;;;;;;;270.25;140.73;;;;;;;11.72;100.00;99351.53;5077102;28;20095;-67
2021/12/09 02:22:11;;;;;;;254.93;137.40;;;;;;;11.76;100.00;99363.50;5077569;28;20473;-67
2021/12/09 02:25:00;;;;;;;283.98;149.65;;;;;;;11.80;100.00;99352.25;5054819;28;20051;-65
2021/12/09 02:27:41;;;;;;;298.27;159.93;;;;;;;11.82;100.00;99350.44;5083952;28;20048;-67
2021/12/09 02:30:30;;;;;;;302.35;157.32;;;;;;;11.92;100.00;99348.50;5087780;28;20541;-67
2021/12/09 02:33:13;;;;;;;302.75;156.90;;;;;;;12.00;100.00;99362.06;5047278;28;20078;-67
2021/12/09 02:36:02;;;;;;;311.40;159.48;;;;;;;11.99;100.00;99364.69;5048044;28;20743;-67
2021/12/09 02:38:46;;;;;;;300.30;156.05;;;;;;;12.06;100.00;99361.91;5051226;28;20063;-67
2021/12/09 02:41:36;;;;;;;295.73;153.75;;;;;;;12.16;100.00;99383.19;5068055;28;20055;-67
2021/12/09 02:44:22;;;;;;;311.33;156.38;;;;;;;12.19;100.00;99383.97;5050783;28;20044;-67
2021/12/09 02:47:11;;;;;;;299.90;159.95;;;;;;;12.26;100.00;99393.25;5061145;28;20072;-68
2021/12/09 02:49:52;;;;;;;312.30;160.93;;;;;;;12.29;100.00;99396.66;5051408;28;20053;-67
2021/12/09 02:52:40;;;;;;;315.75;160.10;;;;;;;12.40;100.00;99403.22;5067949;28;22153;-67
2021/12/09 02:55:23;;;;;;;309.58;161.30;;;;;;;12.49;100.00;99405.59;5067019;28;20072;-68
2021/12/09 02:58:12;;;;;;;330.90;174.57;;;;;;;12.64;100.00;99410.34;5069042;28;20111;-68
2021/12/09 03:01:05;;;;;;;371.08;180.82;;;;;;;12.74;100.00;99408.38;5054773;27;20090;-68
2021/12/09 03:04:00;;;;;;;360.20;181.68;;;;;;;12.84;100.00;99414.16;5068067;28;20483;-68
2021/12/09 03:06:51;;;;;;;374.90;185.13;;;;;;;12.94;100.00;99412.97;5067294;28;20142;-68
2021/12/09 03:09:33;;;;;;;385.88;182.57;;;;;;;13.18;100.00;99419.22;5050808;28;20060;-68
2021/12/09 03:12:31;;;;;;;387.25;190.10;;;;;;;13.52;100.00;99414.75;5067119;28;20048;-67
2021/12/09 03:15:14;;;;;;;371.85;187.88;;;;;;;13.88;100.00;99423.16;5071904;28;20105;-67
2021/12/09 03:18:03;;;;;;;388.85;194.38;;;;;;;14.29;100.00;99426.13;5061616;28;20053;-68
2021/12/09 03:20:47;;;;;;;398.35;201.35;;;;;;;14.67;100.00;99430.94;5083871;28;20137;-68
2021/12/09 03:23:36;;;;;;;410.15;202.50;;;;;;;14.96;100.00;99429.03;5069432;28;20049;-68
2021/12/09 03:26:25;;;;;;;;;;;;;;;15.29;100.00;99448.59;5043173;28;20063;-64
2021/12/09 03:29:17;;;;;;;400.25;201.38;;;;;;;15.71;100.00;99443.56;5051255;28;19975;-65
2021/12/09 03:32:04;;;;;;;417.33;206.77;;;;;;;16.26;100.00;99460.44;5072476;28;20486;-64
2021/12/09 03:34:54;;;;;;;405.08;209.63;;;;;;;16.61;100.00;99458.13;5060210;28;20132;-64
2021/12/09 03:37:37;;;;;;;417.73;213.38;;;;;;;16.87;100.00;99475.25;5065504;28;20129;-65
2021/12/09 03:40:27;;;;;;;434.38;221.68;;;;;;;17.05;100.00;99475.31;5070789;28;20468;-64
2021/12/09 03:43:17;;;;;;;439.42;226.32;;;;;;;17.38;100.00;99477.34;5065749;28;20380;-65
2021/12/09 03:46:00;;;;;;;456.02;235.45;;;;;;;17.58;100.00;99482.47;5046337;28;20468;-64
2021/12/09 03:48:50;;;;;;;467.27;247.85;;;;;;;17.91;100.00;99482.72;5063317;28;20072;-66
2021/12/09 03:51:40;;;;;;;473.23;248.57;;;;;;;18.38;100.00;99488.25;5067521;28;20139;-64
2021/12/09 03:54:29;;;;;;;478.05;255.50;;;;;;;18.64;100.00;99489.63;5047414;28;20148;-64
2021/12/09 03:57:19;;;;;;;486.15;266.50;;;;;;;18.89;100.00;99495.31;5065928;28;20051;-64
2021/12/09 03:59:55;;;;;;;504.63;271.65;;;;;;;19.10;100.00;99493.34;5049579;28;20048;-64
2021/12/09 04:02:44;;;;;;;488.60;265.40;;;;;;;19.45;100.00;99497.59;5045822;28;20086;-65
2021/12/09 04:05:34;;;;;;;491.10;275.75;;;;;;;19.74;100.00;99501.28;5050175;28;20109;-64
2021/12/09 04:08:31;;;;;;;500.83;279.60;;;;;;;19.78;99.98;99508.03;5077045;28;20542;-65
2021/12/09 04:11:10;;;;;;;465.75;267.33;;;;;;;20.12;99.50;99517.47;5069455;28;20853;-65
2021/12/09 04:14:07;;;;;;;473.38;273.10;;;;;;;20.03;97.49;99519.78;5063127;28;20131;-64
2021/12/09 04:16:44;;;;;;;470.73;275.33;;;;;;;20.13;92.18;99515.69;5064869;28;20052;-64
2021/12/09 04:19:33;;;;;;;455.30;245.85;;;;;;;20.50;81.14;99527.63;5062389;28;20044;-65
2021/12/09 04:22:17;;;;;;;431.20;243.35;;;;;;;20.45;88.25;99520.00;5076453;28;20074;-64
2021/12/09 04:25:08;;;;;;;493.52;251.10;;;;;;;20.63;85.47;99523.34;5065484;28;20048;-64
2021/12/09 04:27:53;;;;;;;437.70;247.80;;;;;;;20.84;82.36;99527.34;5065047;28;20055;-65
2021/12/09 04:30:42;;;;;;;444.20;247.73;;;;;;;20.82;80.39;99531.00;5067123;28;20713;-64
2021/12/09 04:33:25;;;;;;;451.63;248.65;;;;;;;21.19;82.49;99534.94;5071937;28;20040;-65
2021/12/09 04:36:14;;;;;;;358.92;198.48;;;;;;;21.58;71.25;99534.28;5069359;28;20635;-64
2021/12/09 04:38:57;;;;;;;429.23;241.15;;;;;;;20.56;65.53;99545.59;5072885;28;20040;-64
2021/12/09 04:41:54;;;;;;;392.50;218.18;;;;;;;20.58;72.63;99528.88;5064170;28;20052;-64
2021/12/09 04:44:29;;;;;;;386.98;223.05;;;;;;;20.99;77.83;99531.66;5051801;28;20049;-65
2021/12/09 04:47:18;;;;;;;378.25;213.85;;;;;;;20.98;79.39;99532.63;5070254;28;20130;-64
2021/12/09 04:50:11;;;;;;;362.33;196.85;;;;;;;20.94;77.75;99528.50;5049621;28;20045;-64
2021/12/09 04:53:01;;;;;;;318.58;174.15;;;;;;;21.14;76.45;99529.94;5077884;28;20051;-64
2021/12/09 04:55:44;;;;;;;243.55;134.07;;;;;;;21.20;63.23;99534.00;5034813;28;20052;-66
2021/12/09 04:58:33;;;;;;;199.82;111.90;;;;;;;21.64;61.78;99534.75;5068573;28;20710;-65
2021/12/09 05:01:31;;;;;;;154.80;85.90;;;;;;;21.21;54.97;99546.19;5059444;28;20044;-67
2021/12/09 05:04:19;;;;;;;151.10;79.18;;;;;;;21.58;59.13;99536.91;5047827;28;20052;-66
2021/12/09 05:07:02;;;;;;;151.63;80.68;;;;;;;21.44;62.17;99531.69;5064647;28;20079;-66
2021/12/09 05:09:52;;;;;;;152.27;79.15;;;;;;;21.75;64.80;99527.06;5065024;28;20844;-66
2021/12/09 05:12:35;;;;;;;143.43;75.70;;;;;;;21.44;60.25;99526.44;5068746;28;20044;-67
2021/12/09 05:15:25;;;;;;;171.65;90.90;;;;;;;21.32;62.23;99525.38;5064624;28;20102;-67
2021/12/09 05:18:08;;;;;;;167.55;96.07;;;;;;;21.38;65.03;99532.91;5052190;28;20052;-67
2021/12/09 05:21:03;;;;;;;197.23;109.68;;;;;;;21.51;63.85;99533.00;5069474;28;20043;-70
2021/12/09 05:23:41;;;;;;;191.40;108.15;;;;;;;21.15;57.05;99541.28;5061174;28;20076;-70
2021/12/09 05:26:45;;;;;;;180.80;103.25;;;;;;;21.48;59.62;99538.41;5079963;28;20059;-66
2021/12/09 05:29:28;;;;;;;191.77;104.57;;;;;;;21.45;58.67;99544.69;5061964;28;20037;-66
2021/12/09 05:32:25;;;;;;;186.75;102.90;;;;;;;21.41;63.71;99543.19;5065365;28;20056;-67
2021/12/09 05:35:01;;;;;;;181.35;100.82;;;;;;;21.47;59.62;99536.75;5072107;28;20060;-66
2021/12/09 05:37:56;;;;;;;156.93;85.35;;;;;;;21.69;51.25;99542.34;5053456;28;20040;-68
2021/12/09 05:40:32;;;;;;;147.75;74.72;;;;;;;21.53;50.76;99542.47;5065606;28;20048;-69
2021/12/09 05:43:27;;;;;;;154.90;77.88;;;;;;;22.17;55.99;99537.63;5059924;28;20044;-69
2021/12/09 05:46:04;;;;;;;122.88;66.22;;;;;;;22.31;49.92;99540.19;5070428;28;20081;-65
2021/12/09 05:49:01;;;;;;;142.35;75.75;;;;;;;22.28;52.91;99535.13;5074690;28;20052;-67
2021/12/09 05:51:39;;;;;;;125.93;69.70;;;;;;;22.19;54.56;99533.94;5069942;28;20056;-69
2021/12/09 05:54:35;;;;;;;122.13;67.15;;;;;;;22.31;51.85;99537.56;5077570;28;20048;-65
2021/12/09 05:57:12;;;;;;;103.03;54.75;;;;;;;22.18;49.10;99541.94;5073868;28;20059;-66
2021/12/09 06:00:10;;;;;;;114.53;57.20;;;;;;;22.68;48.81;99528.13;5074686;28;20055;-66
2021/12/09 06:02:58;;;;;;;109.07;58.17;;;;;;;22.78;52.46;99534.50;5046430;28;20065;-66
2021/12/09 06:05:48;;;;;;;164.80;84.97;;;;;;;22.71;48.46;99533.19;5047482;28;21341;-65
2021/12/09 06:08:32;;;;;;;157.02;86.40;;;;;;;22.82;51.27;99536.84;5041237;28;20053;-67
2021/12/09 06:11:22;;;;;;;164.63;86.45;;;;;;;22.80;51.45;99532.63;5039746;28;20850;-66
2021/12/09 06:14:06;;;;;;;160.68;89.03;;;;;;;22.85;54.46;99530.53;5046735;28;20092;-66
2021/12/09 06:16:54;;;;;;;168.02;90.78;;;;;;;23.25;50.56;99532.16;5044234;28;20163;-64
2021/12/09 06:19:43;;;;;;;166.82;93.50;;;;;;;22.92;54.74;99530.94;5047221;28;20052;-65
2021/12/09 06:22:32;;;;;;;147.93;77.50;;;;;;;23.16;49.51;99530.13;5028611;28;20440;-65
2021/12/09 06:25:29;;;;;;;139.57;72.30;;;;;;;22.89;48.13;99527.59;5047788;28;20508;-65
2021/12/09 06:28:05;;;;;;;168.60;87.55;;;;;;;22.72;48.87;99527.00;5046011;28;20048;-67
2021/12/09 06:30:53;;;;;;;178.40;92.15;;;;;;;23.09;52.53;99517.50;5042273;28;20657;-65
2021/12/09 06:33:36;;;;;;;190.95;91.82;;;;;;;23.13;47.70;99517.22;5041159;28;20074;-64
2021/12/09 06:36:26;;;;;;;175.57;95.30;;;;;;;23.02;46.90;99518.88;5045941;28;20095;-66
2021/12/09 06:39:14;;;;;;;182.98;95.32;;;;;;;23.04;52.37;99503.84;5044665;28;20544;-65
2021/12/09 06:41:56;;;;;;;168.82;90.93;;;;;;;23.16;51.34;99503.00;5024979;28;20049;-65
2021/12/09 06:44:45;;;;;;;113.82;62.85;;;;;;;22.83;46.95;99506.13;5038758;28;20053;-65
2021/12/09 06:47:27;;;;;;;142.70;74.82;;;;;;;22.82;49.72;99504.47;5047581;28;20086;-64
2021/12/09 06:50:19;;;;;;;133.10;72.65;;;;;;;22.68;48.89;99500.06;5035101;28;20041;-66
2021/12/09 06:53:02;;;;;;;116.75;61.25;;;;;;;22.77;48.21;99496.03;5028138;28;20115;-65
2021/12/09 06:56:07;;;;;;;117.05;62.17;;;;;;;22.54;45.30;99494.91;5046966;28;20049;-65
2021/12/09 06:58:55;;;;;;;120.05;61.28;;;;;;;22.78;50.28;99487.22;5047007;28;20044;-66
2021/12/09 07:01:45;;;;;;;112.07;64.93;;;;;;;22.91;51.72;99487.25;5062368;28;20052;-65
2021/12/09 07:04:41;;;;;;;124.75;64.82;;;;;;;22.81;45.08;99479.13;5062114;28;20052;-65
2021/12/09 07:07:17;;;;;;;144.77;69.10;;;;;;;22.99;44.30;99479.69;5076529;28;20044;-63
2021/12/09 07:10:17;;;;;;;124.35;65.60;;;;;;;22.98;48.58;99463.06;5066943;28;20129;-65
2021/12/09 07:12:53;;;;;;;101.90;49.75;;;;;;;22.94;44.28;99460.72;5067426;28;20061;-65
2021/12/09 07:15:43;;;;;;;85.57;44.70;;;;;;;23.03;45.10;99454.84;5075218;28;20055;-67
2021/12/09 07:18:25;;;;;;;118.40;60.47;;;;;;;22.69;42.19;99459.72;5070981;28;20048;-66
2021/12/09 07:21:15;;;;;;;95.63;48.55;;;;;;;22.64;42.07;99453.13;5066085;28;20105;-67
2021/12/09 07:23:56;;;;;;;120.28;56.88;;;;;;;22.64;41.89;99451.34;5070534;28;20051;-65
2021/12/09 07:26:45;;;;;;;110.03;59.70;;;;;;;22.66;42.12;99453.84;5052526;28;20051;-66
2021/12/09 07:29:27;;;;;;;145.00;71.57;;;;;;;22.86;47.13;99448.13;5063746;28;20113;-65
2021/12/09 07:32:15;;;;;;;246.98;116.28;;;;;;;22.58;52.65;99445.66;5064911;28;20051;-67
2021/12/09 07:34:57;;;;;;;275.23;126.35;;;;;;;22.37;51.21;99445.28;5058965;28;20044;-68
2021/12/09 07:37:46;;;;;;;236.07;114.90;;;;;;;22.07;52.02;99442.88;5059316;28;20049;-67
2021/12/09 07:40:29;;;;;;;221.93;111.90;;;;;;;22.14;58.91;99442.38;5047237;28;20419;-66
2021/12/09 07:43:24;;;;;;;221.95;109.57;;;;;;;21.99;56.49;99439.91;5065836;28;20076;-66
2021/12/09 07:46:00;;;;;;;230.55;113.18;;;;;;;21.84;52.30;99441.72;5063507;28;20110;-66
2021/12/09 07:48:49;;;;;;;215.77;110.00;;;;;;;22.03;59.14;99441.41;5065506;28;20048;-66
2021/12/09 07:51:32;;;;;;;197.70;101.10;;;;;;;21.97;55.77;99437.38;5061329;28;20059;-66
2021/12/09 07:54:23;;;;;;;193.60;94.90;;;;;;;22.02;59.50;99434.47;5055011;28;20385;-67
2021/12/09 07:57:11;;;;;;;158.18;74.28;;;;;;;21.98;52.34;99431.19;5064534;28;20059;-66
2021/12/09 08:00:07;;;;;;;158.90;74.93;;;;;;;21.93;52.36;99425.38;5071722;28;20068;-66
2021/12/09 08:02:56;;;;;;;137.18;65.30;;;;;;;21.90;53.38;99424.72;5061354;28;20048;-66
2021/12/09 08:05:49;;;;;;;130.43;65.40;;;;;;;21.94;53.73;99421.81;5047487;28;20144;-66
2021/12/09 08:08:37;;;;;;;131.27;60.33;;;;;;;21.76;52.53;99413.34;5058577;28;20048;-68
2021/12/09 08:11:27;;;;;;;112.70;56.10;;;;;;;21.71;48.74;99415.41;5070835;28;20551;-66
2021/12/09 08:14:12;;;;;;;122.57;54.95;;;;;;;21.81;50.47;99414.81;5073460;28;20154;-66
2021/12/09 08:17:23;;;;;;;116.57;53.33;;;;;;;21.72;49.90;99403.13;5056346;28;20079;-67
2021/12/09 08:20:06;;;;;;;110.40;50.35;;;;;;;21.97;51.67;99407.66;5059836;28;20177;-66
2021/12/09 08:22:56;;;;;;;97.82;47.53;;;;;;;21.95;49.59;99406.91;5065438;28;20538;-66
2021/12/09 08:25:40;;;;;;;100.45;45.88;;;;;;;21.91;49.73;99405.41;5064990;28;20133;-67
2021/12/09 08:28:30;;;;;;;95.72;43.20;;;;;;;21.80;50.03;99408.72;5063816;28;20132;-66
2021/12/09 08:31:13;;;;;;;97.68;45.20;;;;;;;21.83;52.57;99402.44;5070513;28;20102;-66
2021/12/09 08:34:03;;;;;;;97.13;46.97;;;;;;;21.95;50.09;99406.91;5070926;28;20617;-67
2021/12/09 08:37:01;;;;;;;74.50;33.65;;;;;;;21.80;48.64;99395.59;5075020;28;20071;-68
2021/12/09 08:39:50;;;;;;;68.65;33.72;;;;;;;21.83;49.06;99400.66;5067187;28;20083;-66
2021/12/09 08:42:32;;;;;;;83.30;36.30;;;;;;;21.71;50.08;99391.78;5067272;28;20075;-67
2021/12/09 08:45:23;;;;;;;76.35;35.85;;;;;;;21.82;52.60;99391.13;5058747;28;20096;-66
2021/12/09 08:48:13;;;;;;;75.40;35.20;;;;;;;21.83;50.58;99387.56;5053937;28;20118;-66
2021/12/09 08:50:56;;;;;;;79.35;36.08;;;;;;;21.70;50.40;99390.13;5062363;28;20044;-67
2021/12/09 08:53:46;;;;;;;77.93;36.75;;;;;;;21.70;50.46;99386.66;5061436;28;20127;-67
2021/12/09 08:56:29;;;;;;;75.90;35.13;;;;;;;21.69;52.65;99385.81;5050760;28;20238;-67
2021/12/09 08:59:21;;;;;;;78.20;36.10;;;;;;;21.62;48.62;99396.81;5068696;28;20052;-66
2021/12/09 09:02:21;;;;;;;72.38;35.53;;;;;;;21.64;52.78;99393.13;5054678;28;20354;-65
2021/12/09 09:05:13;;;;;;;70.60;37.28;;;;;;;21.61;51.95;99389.88;5062620;28;20040;-65
2021/12/09 09:07:56;;;;;;;90.00;37.67;;;;;;;21.66;52.30;99387.78;5059392;28;20097;-66
2021/12/09 09:10:47;;;;;;;77.65;36.63;;;;;;;21.60;51.31;99381.16;5071521;28;20123;-65
2021/12/09 09:13:29;;;;;;;74.05;34.70;;;;;;;21.57;49.24;99375.25;5070328;28;20642;-64
2021/12/09 09:16:19;;;;;;;65.10;33.85;;;;;;;21.44;52.05;99380.47;5048227;28;20052;-67
2021/12/09 09:19:09;;;;;;;78.93;36.00;;;;;;;21.45;51.00;99376.91;5046423;28;20376;-64
2021/12/09 09:21:52;;;;;;;85.88;34.25;;;;;;;21.48;50.04;99375.84;5064013;28;20087;-66
2021/12/09 09:24:42;;;;;;;79.15;34.33;;;;;;;21.49;52.06;99372.28;5060661;28;20135;-65
2021/12/09 09:27:26;;;;;;;77.68;35.38;;;;;;;21.43;52.17;99368.28;5060582;28;20049;-65
2021/12/09 09:30:18;;;;;;;81.80;35.00;;;;;;;21.45;51.02;99371.66;5059454;28;20146;-67
2021/12/09 09:33:13;;;;;;;147.85;39.92;;;;;;;21.42;53.00;99374.47;5053887;28;20052;-66
2021/12/09 09:35:57;;;;;;;83.63;38.35;;;;;;;21.35;52.00;99365.31;5063268;28;20076;-66
2021/12/09 09:38:47;;;;;;;87.18;37.25;;;;;;;21.30;48.50;99370.00;5055289;28;20426;-66
2021/12/09 09:41:33;;;;;;;72.80;34.03;;;;;;;21.29;45.41;99371.78;5072801;28;20858;-66
2021/12/09 09:44:29;;;;;;;89.73;34.20;;;;;;;21.36;49.86;99364.38;5036379;28;20052;-65
2021/12/09 09:47:19;;;;;;;78.00;33.17;;;;;;;21.26;52.68;99358.84;5059595;28;20128;-65
2021/12/09 09:50:03;;;;;;;63.90;32.65;;;;;;;21.20;53.20;99361.03;5074288;28;20148;-65
2021/12/09 09:52:53;;;;;;;67.22;32.05;;;;;;;21.15;63.48;99352.59;5049086;28;20139;-63
2021/12/09 09:55:46;;;;;;;70.18;33.75;;;;;;;20.62;67.48;99354.09;5063830;28;20792;-67
2021/12/09 09:58:36;;;;;;;67.38;32.80;;;;;;;20.49;74.66;99350.53;5072247;28;20087;-66
2021/12/09 10:01:20;;;;;;;61.25;32.70;;;;;;;20.43;90.38;99348.28;5069763;28;20055;-66
2021/12/09 10:04:26;;;;;;;61.30;32.28;;;;;;;20.04;85.97;99352.25;5073392;28;20503;-68
2021/12/09 10:07:09;;;;;;;64.60;31.40;;;;;;;20.02;88.40;99353.28;5072335;28;20604;-68
2021/12/09 10:10:00;;;;;;;67.68;32.58;;;;;;;19.97;90.25;99345.69;5066438;28;20456;-69
2021/12/09 10:13:01;;;;;;;59.92;34.00;;;;;;;19.93;94.66;99346.81;5065139;28;20144;-70
2021/12/09 10:15:53;;;;;;;57.17;32.42;;;;;;;19.96;92.88;99346.63;5070247;28;20550;-70
2021/12/09 10:18:49;;;;;;;67.60;32.30;;;;;;;19.92;79.51;99347.75;5058124;28;20056;-67
2021/12/09 10:21:39;;;;;;;64.78;30.60;;;;;;;19.93;73.91;99354.66;5054687;28;20048;-68
2021/12/09 10:24:38;;;;;;;57.63;29.45;;;;;;;20.06;67.35;99352.16;5070902;28;20040;-69
2021/12/09 10:27:32;;;;;;;53.47;29.65;;;;;;;20.10;67.83;99348.44;5058273;28;20498;-70
2021/12/09 10:30:22;;;;;;;61.80;27.27;;;;;;;20.13;63.08;99356.94;5065190;28;20157;-69
2021/12/09 10:33:21;;;;;;;58.78;29.02;;;;;;;20.11;76.85;99343.09;5059202;28;20055;-69
2021/12/09 10:36:04;;;;;;;63.28;29.42;;;;;;;20.00;78.81;99348.13;5073805;28;20048;-70
2021/12/09 10:38:54;;;;;;;59.10;28.85;;;;;;;19.93;75.70;99344.19;5052278;28;20110;-67
2021/12/09 10:41:50;;;;;;;53.05;29.83;;;;;;;19.81;79.10;99342.25;5075627;28;20063;-67
2021/12/09 10:44:49;;;;;;;62.38;30.25;;;;;;;19.83;73.69;99343.88;5056430;28;20375;-68
2021/12/09 10:47:50;;;;;;;72.95;31.40;;;;;;;19.82;69.84;99341.34;5072646;28;20136;-69
2021/12/09 10:51:34;;;;;;;73.05;31.95;;;;;;;19.79;68.56;99341.53;5075495;28;20480;-69
2021/12/09 10:53:58;;;;;;;74.72;33.72;;;;;;;19.77;77.66;99338.16;5070836;28;20651;-67
2021/12/09 10:56:44;;;;;;;78.97;34.67;;;;;;;19.68;85.22;99336.06;5057296;28;20151;-66
2021/12/09 10:59:33;;;;;;;69.95;33.20;;;;;;;19.51;84.18;99342.22;5072498;28;20148;-67
2021/12/09 11:02:29;;;;;;;74.00;34.58;;;;;;;19.44;84.48;99339.09;5070755;28;20124;-68
2021/12/09 11:05:18;;;;;;;66.85;33.60;;;;;;;19.46;79.47;99339.84;5072746;28;20741;-68
2021/12/09 11:08:29;;;;;;;69.18;34.72;;;;;;;19.40;82.24;99340.16;5067211;28;20110;-67
2021/12/09 11:11:27;;;;;;;70.95;34.55;;;;;;;19.30;85.35;99346.00;5070174;28;20139;-67
2021/12/09 11:14:28;;;;;;;76.22;36.05;;;;;;;19.19;89.30;99341.38;5052773;28;20071;-67
2021/12/09 11:17:45;;;;;;;72.20;34.95;;;;;;;19.00;88.35;99346.72;5070319;28;20159;-67
2021/12/09 11:20:44;;;;;;;83.07;38.53;;;;;;;18.81;89.33;99345.19;5052094;28;20044;-66
2021/12/09 11:23:51;;;;;;;84.57;38.58;;;;;;;18.65;90.05;99350.38;5051809;28;20036;-68
2021/12/09 11:26:55;;;;;;;87.72;40.90;;;;;;;18.54;90.32;99352.66;5043182;28;20052;-67
2021/12/09 11:29:48;;;;;;;76.22;40.28;;;;;;;18.42;90.90;99337.66;5065385;28;20182;-66
2021/12/09 11:32:45;;;;;;;86.68;40.70;;;;;;;18.28;91.41;99341.78;5069043;28;20048;-66
2021/12/09 11:35:43;;;;;;;87.93;43.80;;;;;;;18.21;92.57;99350.00;5064760;28;20076;-67
2021/12/09 11:38:53;;;;;;;99.70;41.50;;;;;;;18.08;92.01;99351.53;5052176;28;20048;-67
2021/12/09 11:41:44;;;;;;;88.05;41.58;;;;;;;17.97;93.27;99352.06;5052579;28;20048;-67
2021/12/09 11:44:27;;;;;;;87.65;40.13;;;;;;;17.86;93.15;99349.16;5063298;28;20048;-67
2021/12/09 11:47:16;;;;;;;96.00;44.42;;;;;;;17.80;96.77;99345.06;5059180;28;20036;-67
2021/12/09 11:50:26;;;;;;;129.50;53.17;;;;;;;17.63;96.27;99350.28;5046235;28;20133;-68
2021/12/09 11:53:18;;;;;;;154.32;62.42;;;;;;;17.50;95.51;99347.34;5059324;28;20122;-66
2021/12/09 11:56:21;;;;;;;130.10;58.75;;;;;;;17.44;97.79;99341.59;5063305;28;20477;-67
2021/12/09 11:59:38;;;;;;;123.45;58.13;;;;;;;17.37;98.27;99342.81;5059770;28;20056;-67
2021/12/09 12:12:56;;;;;;;128.55;52.97;;;;;;;16.96;100.00;99348.16;5061498;28;20094;-66
2021/12/09 12:15:58;;;;;;;117.35;52.38;;;;;;;16.92;100.00;99344.00;5039672;28;20048;-67
2021/12/09 12:19:05;;;;;;;139.68;51.85;;;;;;;16.78;100.00;99351.56;5062240;28;20086;-66
2021/12/09 12:25:32;;;;;;;126.30;48.22;;;;;;;16.51;100.00;99347.56;5062223;28;20052;-67
2021/12/09 12:29:22;;;;;;;130.93;50.42;;;;;;;16.45;100.00;99354.72;5062393;28;20053;-66
2021/12/09 12:38:18;;;;;;;123.65;47.63;;;;;;;16.25;100.00;99367.72;5064105;28;20041;-63
2021/12/09 12:41:11;;;;;;;120.80;47.92;;;;;;;16.32;100.00;99374.34;5056581;28;20049;-65
2021/12/09 12:44:17;;;;;;;113.85;49.72;;;;;;;16.23;100.00;99372.13;5063944;28;20048;-64
2021/12/09 12:47:38;;;;;;;112.10;49.05;;;;;;;16.19;100.00;99377.53;5064032;28;20148;-63
2021/12/09 12:50:28;;;;;;;115.70;54.55;;;;;;;16.24;100.00;99381.63;5062850;28;25777;-64
2021/12/09 12:53:43;;;;;;;138.52;55.45;;;;;;;16.24;100.00;99386.84;5059439;28;20072;-65
2021/12/09 12:56:39;;;;;;;141.48;60.72;;;;;;;16.30;100.00;99393.53;5040782;28;20087;-64
2021/12/09 12:59:36;;;;;;;162.52;66.03;;;;;;;16.25;100.00;99388.53;5060778;28;20044;-65
2021/12/09 13:09:31;;;;;;;176.38;71.18;;;;;;;16.16;100.00;99401.91;5061266;28;20063;-64
2021/12/09 13:12:12;;;;;;;179.87;72.03;;;;;;;16.15;100.00;99401.97;5064112;28;20063;-64
2021/12/09 13:15:29;;;;;;;158.63;69.87;;;;;;;16.14;100.00;99402.88;5064336;28;20059;-64